createdAt,value
2018-12-17T00:00:24.756Z,3.31
2018-12-17T00:03:28.215Z,3.28
2018-12-17T00:06:31.835Z,3.22
2018-12-17T00:09:35.374Z,3.23
2018-12-17T00:12:38.995Z,3.23
2018-12-17T00:15:42.462Z,3.27
2018-12-17T00:18:46.852Z,3.24
2018-12-17T00:21:50.371Z,3.30
2018-12-17T00:24:53.957Z,3.28
2018-12-17T00:27:57.506Z,3.24
2018-12-17T00:31:00.941Z,3.25
2018-12-17T00:34:04.424Z,3.30
2018-12-17T00:37:08.014Z,3.30
2018-12-17T00:40:11.709Z,3.33
2018-12-17T00:43:15.180Z,3.31
2018-12-17T00:46:18.711Z,3.30
2018-12-17T00:49:22.320Z,3.32
2018-12-17T00:52:25.991Z,3.31
2018-12-17T00:55:29.897Z,3.30
2018-12-17T00:58:33.565Z,3.29
2018-12-17T01:01:38.143Z,3.31
2018-12-17T01:04:41.771Z,3.31
2018-12-17T01:07:45.377Z,3.26
2018-12-17T01:10:49.037Z,3.22
2018-12-17T01:13:52.553Z,3.22
2018-12-17T01:16:56.231Z,3.22
2018-12-17T01:20:00.894Z,3.24
2018-12-17T01:23:04.601Z,3.20
2018-12-17T01:26:10.259Z,3.20
2018-12-17T01:29:13.746Z,3.15
2018-12-17T01:32:17.355Z,3.11
2018-12-17T01:35:21.107Z,3.20
2018-12-17T01:38:24.610Z,3.16
2018-12-17T01:41:28.315Z,3.18
2018-12-17T01:44:32.005Z,3.20
2018-12-17T01:47:35.768Z,3.20
2018-12-17T01:50:39.419Z,3.26
2018-12-17T01:53:43.143Z,3.24
2018-12-17T01:56:47.902Z,3.23
2018-12-17T01:59:51.587Z,3.25
2018-12-17T02:02:55.228Z,3.28
2018-12-17T02:05:58.853Z,3.27
2018-12-17T02:09:02.504Z,3.28
2018-12-17T02:12:05.994Z,3.30
2018-12-17T02:15:09.645Z,3.31
2018-12-17T02:18:13.200Z,3.39
2018-12-17T02:21:16.806Z,3.40
2018-12-17T02:24:21.407Z,3.39
2018-12-17T02:27:25.013Z,3.32
2018-12-17T02:30:28.640Z,3.30
2018-12-17T02:33:32.189Z,3.31
2018-12-17T02:36:35.852Z,3.35
2018-12-17T02:39:39.399Z,3.33
2018-12-17T02:42:43.976Z,3.33
2018-12-17T02:45:47.557Z,3.34
2018-12-17T02:48:51.136Z,3.41
2018-12-17T02:51:54.712Z,3.39
2018-12-17T02:54:58.378Z,3.39
2018-12-17T02:58:01.926Z,3.40
2018-12-17T03:01:06.014Z,3.43
2018-12-17T03:04:09.576Z,3.46
2018-12-17T03:07:13.074Z,3.46
2018-12-17T03:10:16.695Z,3.43
2018-12-17T03:13:20.308Z,3.44
2018-12-17T03:16:23.856Z,3.44
2018-12-17T03:19:27.444Z,3.44
2018-12-17T03:22:30.981Z,3.42
2018-12-17T03:25:34.497Z,3.48
2018-12-17T03:28:38.097Z,3.50
2018-12-17T03:31:41.786Z,3.50
2018-12-17T03:34:45.384Z,3.49
2018-12-17T03:37:48.915Z,3.48
2018-12-17T03:40:52.605Z,3.50
2018-12-17T03:43:56.119Z,3.45
2018-12-17T03:46:59.685Z,3.47
2018-12-17T03:50:04.513Z,3.48
2018-12-17T03:53:08.076Z,3.46
2018-12-17T03:56:11.648Z,3.45
2018-12-17T03:59:15.175Z,3.46
2018-12-17T04:02:18.830Z,3.43
2018-12-17T04:05:22.443Z,3.46
2018-12-17T04:08:25.935Z,3.42
2018-12-17T04:11:29.552Z,3.46
2018-12-17T04:14:33.076Z,3.46
2018-12-17T04:17:36.572Z,3.45
2018-12-17T04:20:40.071Z,3.45
2018-12-17T04:23:43.559Z,3.47
2018-12-17T04:26:47.145Z,3.48
2018-12-17T04:29:50.668Z,3.50
2018-12-17T04:32:54.124Z,3.49
2018-12-17T04:35:57.825Z,3.51
2018-12-17T04:39:01.471Z,3.42
2018-12-17T04:42:05.122Z,3.41
2018-12-17T04:45:08.549Z,3.42
2018-12-17T04:48:12.082Z,3.49
2018-12-17T04:51:15.722Z,3.50
2018-12-17T04:54:19.233Z,3.49
2018-12-17T04:57:22.840Z,3.52
2018-12-17T05:00:26.316Z,3.53
2018-12-17T05:03:30.007Z,3.48
2018-12-17T05:06:33.476Z,3.49
2018-12-17T05:09:37.080Z,3.52
2018-12-17T05:12:40.684Z,3.57
2018-12-17T05:15:44.266Z,3.55
2018-12-17T05:18:47.845Z,3.58
2018-12-17T05:21:51.399Z,3.61
2018-12-17T05:24:54.863Z,3.58
2018-12-17T05:27:58.271Z,3.61
2018-12-17T05:31:01.816Z,3.58
2018-12-17T05:34:05.356Z,3.62
2018-12-17T05:37:08.902Z,3.61
2018-12-17T05:40:12.276Z,3.60
2018-12-17T05:43:15.771Z,3.63
2018-12-17T05:46:19.306Z,3.64
2018-12-17T05:49:22.756Z,3.65
2018-12-17T05:52:26.682Z,3.67
2018-12-17T05:55:30.212Z,3.68
2018-12-17T05:58:33.725Z,3.70
2018-12-17T06:01:37.302Z,3.70
2018-12-17T06:04:40.800Z,3.67
2018-12-17T06:07:44.271Z,3.68
2018-12-17T06:10:47.872Z,3.66
2018-12-17T06:13:51.389Z,3.63
2018-12-17T06:16:56.030Z,3.64
2018-12-17T06:20:00.655Z,3.63
2018-12-17T06:23:04.145Z,3.64
2018-12-17T06:26:07.766Z,3.63
2018-12-17T06:29:11.306Z,3.61
2018-12-17T06:32:14.841Z,3.64
2018-12-17T06:35:18.390Z,3.62
2018-12-17T06:38:21.927Z,3.63
2018-12-17T06:41:25.767Z,3.64
2018-12-17T06:44:29.374Z,3.68
2018-12-17T06:47:33.088Z,3.72
2018-12-17T06:50:36.631Z,3.70
2018-12-17T06:53:40.042Z,3.72
2018-12-17T06:56:43.480Z,3.72
2018-12-17T06:59:47.019Z,3.77
2018-12-17T07:02:50.684Z,3.80
2018-12-17T07:05:54.217Z,3.80
2018-12-17T07:08:57.678Z,3.82
2018-12-17T07:12:01.208Z,3.84
2018-12-17T07:15:05.765Z,3.86
2018-12-17T07:18:09.336Z,3.83
2018-12-17T07:21:12.885Z,3.87
2018-12-17T07:24:16.512Z,3.86
2018-12-17T07:27:21.107Z,3.79
2018-12-17T07:30:24.721Z,3.75
2018-12-17T07:33:28.395Z,3.79
2018-12-17T07:36:32.125Z,3.76
2018-12-17T07:39:35.818Z,3.77
2018-12-17T07:42:39.490Z,3.78
2018-12-17T07:45:42.973Z,3.80
2018-12-17T07:48:46.467Z,3.83
2018-12-17T07:51:50.148Z,3.86
2018-12-17T07:54:53.808Z,3.93
2018-12-17T07:57:58.366Z,3.88
2018-12-17T08:01:02.028Z,3.92
2018-12-17T08:04:06.671Z,3.92
2018-12-17T08:07:10.264Z,3.94
2018-12-17T08:10:13.899Z,3.97
2018-12-17T08:13:17.511Z,3.97
2018-12-17T08:16:21.093Z,3.99
2018-12-17T08:19:25.064Z,3.98
2018-12-17T08:22:28.699Z,4.02
2018-12-17T08:25:32.362Z,4.04
2018-12-17T08:28:35.961Z,3.99
2018-12-17T08:31:39.469Z,4.02
2018-12-17T08:34:42.990Z,4.09
2018-12-17T08:37:46.481Z,4.05
2018-12-17T08:40:50.096Z,4.14
2018-12-17T08:43:53.673Z,4.06
2018-12-17T08:46:57.296Z,4.09
2018-12-17T08:50:00.883Z,4.12
2018-12-17T08:53:04.812Z,4.10
2018-12-17T08:56:08.508Z,4.07
2018-12-17T08:59:12.183Z,4.19
2018-12-17T09:02:15.725Z,4.05
2018-12-17T09:05:19.247Z,4.04
2018-12-17T09:08:23.129Z,4.05
2018-12-17T09:11:26.798Z,4.03
2018-12-17T09:14:30.442Z,4.06
2018-12-17T09:17:34.056Z,4.05
2018-12-17T09:20:37.546Z,4.03
2018-12-17T09:23:41.060Z,4.04
2018-12-17T09:26:44.756Z,4.09
2018-12-17T09:29:48.374Z,4.07
2018-12-17T09:32:52.032Z,4.09
2018-12-17T09:35:57.970Z,4.12
2018-12-17T09:39:01.472Z,4.12
2018-12-17T09:42:05.107Z,4.11
2018-12-17T09:45:08.604Z,4.13
2018-12-17T09:48:12.169Z,4.14
2018-12-17T09:51:19.651Z,4.18
2018-12-17T09:54:22.601Z,4.18
2018-12-17T09:57:26.053Z,4.22
2018-12-17T10:00:30.035Z,4.20
2018-12-17T10:03:33.685Z,4.16
2018-12-17T10:06:37.261Z,4.18
2018-12-17T10:09:41.812Z,4.19
2018-12-17T10:12:45.906Z,4.19
2018-12-17T10:15:49.473Z,4.18
2018-12-17T10:18:52.943Z,4.20
2018-12-17T10:21:57.613Z,4.22
2018-12-17T10:25:01.218Z,4.23
2018-12-17T10:28:04.809Z,4.25
2018-12-17T10:31:08.359Z,4.24
2018-12-17T10:34:12.022Z,4.23
2018-12-17T10:37:15.813Z,4.20
2018-12-17T10:40:19.424Z,4.27
2018-12-17T10:43:22.878Z,4.26
2018-12-17T10:46:26.923Z,4.26
2018-12-17T10:49:31.747Z,4.23
2018-12-17T10:52:35.387Z,4.19
2018-12-17T10:55:39.220Z,4.25
2018-12-17T10:58:42.830Z,4.22
2018-12-17T11:02:54.304Z,4.24
2018-12-17T11:05:57.927Z,4.29
2018-12-17T11:09:02.335Z,4.27
2018-12-17T11:12:04.944Z,4.26
2018-12-17T11:15:10.350Z,4.28
2018-12-17T11:18:13.846Z,4.36
2018-12-17T11:21:17.830Z,4.40
2018-12-17T11:24:21.585Z,4.47
2018-12-17T11:27:25.104Z,4.44
2018-12-17T11:30:28.754Z,4.42
2018-12-17T11:33:32.786Z,4.42
2018-12-17T11:36:36.395Z,4.45
2018-12-17T11:39:39.934Z,4.47
2018-12-17T11:42:43.724Z,4.56
2018-12-17T11:45:47.243Z,4.63
2018-12-17T11:48:50.788Z,4.68
2018-12-17T11:51:54.250Z,4.61
2018-12-17T11:54:57.735Z,4.74
2018-12-17T11:58:13.329Z,4.78
2018-12-17T12:01:16.919Z,4.88
2018-12-17T12:04:20.506Z,4.95
2018-12-17T12:07:24.013Z,4.96
2018-12-17T12:10:27.644Z,4.93
2018-12-17T12:13:32.097Z,4.99
2018-12-17T12:16:35.653Z,5.02
2018-12-17T12:19:39.198Z,5.06
2018-12-17T12:22:42.604Z,5.20
2018-12-17T12:25:46.120Z,5.20
2018-12-17T12:28:49.509Z,5.20
2018-12-17T12:31:52.899Z,5.17
2018-12-17T12:34:56.479Z,5.18
2018-12-17T12:37:59.916Z,5.21
2018-12-17T12:41:04.551Z,5.26
2018-12-17T12:44:08.864Z,5.25
2018-12-17T12:47:11.849Z,5.20
2018-12-17T12:50:15.518Z,5.13
2018-12-17T12:53:19.143Z,5.04
2018-12-17T12:56:22.830Z,5.17
2018-12-17T12:59:26.597Z,5.14
2018-12-17T13:02:30.175Z,5.21
2018-12-17T13:05:34.195Z,5.27
2018-12-17T13:08:39.747Z,5.30
2018-12-17T13:11:43.427Z,5.35
2018-12-17T13:14:47.121Z,5.39
2018-12-17T13:17:50.653Z,5.39
2018-12-17T13:20:54.297Z,5.29
2018-12-17T13:23:57.937Z,5.33
2018-12-17T13:27:01.503Z,5.37
2018-12-17T13:30:06.913Z,5.36
2018-12-17T13:33:10.559Z,5.32
2018-12-17T13:36:14.721Z,5.34
2018-12-17T13:39:17.886Z,5.34
2018-12-17T13:42:21.717Z,5.36
2018-12-17T13:45:25.685Z,5.33
2018-12-17T13:48:29.459Z,5.42
2018-12-17T13:51:33.447Z,5.39
2018-12-17T13:54:37.064Z,5.38
2018-12-17T13:57:40.682Z,5.38
2018-12-17T14:00:44.892Z,5.44
2018-12-17T14:03:48.696Z,5.47
2018-12-17T14:06:52.294Z,5.56
2018-12-17T14:10:01.281Z,5.58
2018-12-17T14:13:04.881Z,5.65
2018-12-17T14:16:14.954Z,5.66
2018-12-17T14:19:22.674Z,5.66
2018-12-17T14:22:27.141Z,5.69
2018-12-17T14:25:30.753Z,5.60
2018-12-17T14:28:34.579Z,5.63
2018-12-17T14:31:38.055Z,5.63
2018-12-17T14:34:41.666Z,5.64
2018-12-17T14:37:50.465Z,5.69
2018-12-17T14:40:54.038Z,5.71
2018-12-17T14:44:01.794Z,5.67
2018-12-17T14:47:05.628Z,5.63
2018-12-17T14:50:09.142Z,5.58
2018-12-17T14:53:12.736Z,5.56
2018-12-17T14:56:16.810Z,5.52
2018-12-17T14:59:20.424Z,5.55
2018-12-17T15:02:23.969Z,5.60
2018-12-17T15:05:27.481Z,5.60
2018-12-17T15:08:31.099Z,5.64
2018-12-17T15:11:34.775Z,5.59
2018-12-17T15:14:38.289Z,5.51
2018-12-17T15:17:41.887Z,5.55
2018-12-17T15:20:45.342Z,5.59
2018-12-17T15:23:48.955Z,5.59
2018-12-17T15:26:52.415Z,5.59
2018-12-17T15:29:55.892Z,5.65
2018-12-17T15:32:59.378Z,5.64
2018-12-17T15:36:03.053Z,5.57
2018-12-17T15:39:06.919Z,5.54
2018-12-17T15:42:10.756Z,5.50
2018-12-17T15:45:15.041Z,5.48
2018-12-17T15:48:19.232Z,5.50
2018-12-17T15:51:22.695Z,5.52
2018-12-17T15:54:27.184Z,5.55
2018-12-17T15:57:32.233Z,5.56
2018-12-17T16:00:36.956Z,5.57
2018-12-17T16:03:41.639Z,5.54
2018-12-17T16:06:45.333Z,5.57
2018-12-17T16:09:49.197Z,5.59
2018-12-17T16:12:52.706Z,5.59
2018-12-17T16:15:56.168Z,5.67
2018-12-17T16:19:00.262Z,5.66
2018-12-17T16:22:04.845Z,5.67
2018-12-17T16:25:08.664Z,5.61
2018-12-17T16:28:12.201Z,5.60
2018-12-17T16:31:16.057Z,5.62
2018-12-17T16:34:19.657Z,5.58
2018-12-17T16:37:23.081Z,5.63
2018-12-17T16:40:26.722Z,5.63
2018-12-17T16:43:30.455Z,5.62
2018-12-17T16:46:34.026Z,5.58
2018-12-17T16:49:37.683Z,5.69
2018-12-17T16:52:41.414Z,5.71
2018-12-17T16:55:45.002Z,5.81
2018-12-17T16:58:48.690Z,5.80
2018-12-17T17:01:52.304Z,5.79
2018-12-17T17:04:55.847Z,5.74
2018-12-17T17:07:59.305Z,5.78
2018-12-17T17:11:02.797Z,5.75
2018-12-17T17:14:06.314Z,5.77
2018-12-17T17:17:09.824Z,5.73
2018-12-17T17:20:13.305Z,5.77
2018-12-17T17:23:16.714Z,5.82
2018-12-17T17:26:20.381Z,5.80
2018-12-17T17:29:23.919Z,5.86
2018-12-17T17:32:27.443Z,5.82
2018-12-17T17:35:30.992Z,5.82
2018-12-17T17:38:34.372Z,5.84
2018-12-17T17:41:37.768Z,5.81
2018-12-17T17:44:41.143Z,5.84
2018-12-17T17:47:45.011Z,5.83
2018-12-17T17:50:48.475Z,5.85
2018-12-17T17:53:51.837Z,5.89
2018-12-17T17:56:56.404Z,5.85
2018-12-17T17:59:59.999Z,5.89
2018-12-17T18:03:05.033Z,5.85
2018-12-17T18:06:16.083Z,5.87
2018-12-17T18:09:12.380Z,5.87
2018-12-17T18:12:15.954Z,5.87
2018-12-17T18:15:19.558Z,5.79
2018-12-17T18:18:23.055Z,5.75
2018-12-17T18:21:27.564Z,5.83
2018-12-17T18:24:31.136Z,5.83
2018-12-17T18:27:34.776Z,5.91
2018-12-17T18:30:38.663Z,5.85
2018-12-17T18:33:42.267Z,5.82
2018-12-17T18:36:45.920Z,5.78
2018-12-17T18:39:49.539Z,5.75
2018-12-17T18:42:53.127Z,5.76
2018-12-17T18:45:56.781Z,5.76
2018-12-17T18:49:00.835Z,5.74
2018-12-17T18:52:04.447Z,5.75
2018-12-17T18:55:07.994Z,5.75
2018-12-17T18:58:11.565Z,5.76
2018-12-17T19:01:15.101Z,5.79
2018-12-17T19:04:19.668Z,5.80
2018-12-17T19:07:23.263Z,5.76
2018-12-17T19:10:31.043Z,5.72
2018-12-17T19:13:34.471Z,5.78
2018-12-17T19:16:38.203Z,5.81
2018-12-17T19:19:41.706Z,5.73
2018-12-17T19:22:45.327Z,5.72
2018-12-17T19:25:48.874Z,5.70
2018-12-17T19:28:52.385Z,5.67
2018-12-17T19:31:56.001Z,5.66
2018-12-17T19:34:59.596Z,5.65
2018-12-17T19:38:03.129Z,5.70
2018-12-17T19:41:06.651Z,5.74
2018-12-17T19:44:10.272Z,5.75
2018-12-17T19:47:13.827Z,5.82
2018-12-17T19:50:17.428Z,5.88
2018-12-17T19:53:20.781Z,5.91
2018-12-17T19:56:24.222Z,5.94
2018-12-17T19:59:28.489Z,5.92
2018-12-17T20:02:32.056Z,5.97
2018-12-17T20:05:35.659Z,6.01
2018-12-17T20:08:39.256Z,5.98
2018-12-17T20:11:42.665Z,5.96
2018-12-17T20:14:46.647Z,5.96
2018-12-17T20:17:50.211Z,6.00
2018-12-17T20:20:54.096Z,6.05
2018-12-17T20:23:57.732Z,6.04
2018-12-17T20:27:01.216Z,6.07
2018-12-17T20:30:05.404Z,6.08
2018-12-17T20:33:08.895Z,6.07
2018-12-17T20:36:12.904Z,6.08
2018-12-17T20:39:16.322Z,6.11
2018-12-17T20:42:19.761Z,6.10
2018-12-17T20:45:23.483Z,6.11
2018-12-17T20:48:26.949Z,6.10
2018-12-17T20:51:30.464Z,5.94
2018-12-17T20:54:34.070Z,5.94
2018-12-17T20:57:37.706Z,5.90
2018-12-17T21:00:41.401Z,5.89
2018-12-17T21:03:44.938Z,5.86
2018-12-17T21:06:50.052Z,5.91
2018-12-17T21:09:52.025Z,5.94
2018-12-17T21:12:55.666Z,5.99
2018-12-17T21:15:59.213Z,6.00
2018-12-17T21:19:02.767Z,6.01
2018-12-17T21:22:09.328Z,5.99
2018-12-17T21:25:12.951Z,5.92
2018-12-17T21:28:16.438Z,5.90
2018-12-17T21:31:19.925Z,5.96
2018-12-17T21:34:23.471Z,5.92
2018-12-17T21:37:28.056Z,5.90
2018-12-17T21:40:31.497Z,5.87
2018-12-17T21:43:36.143Z,5.90
2018-12-17T21:46:38.977Z,5.90
2018-12-17T21:49:42.511Z,5.87
2018-12-17T21:52:46.922Z,5.88
2018-12-17T21:55:50.508Z,5.91
2018-12-17T21:58:54.022Z,5.96
2018-12-17T22:01:57.543Z,5.99
2018-12-17T22:05:00.938Z,6.00
2018-12-17T22:08:04.445Z,5.95
2018-12-17T22:11:08.500Z,5.95
2018-12-17T22:14:12.044Z,5.91
2018-12-17T22:17:15.684Z,5.93
2018-12-17T22:20:19.183Z,5.99
2018-12-17T22:23:22.672Z,5.98
2018-12-17T22:26:29.232Z,6.01
2018-12-17T22:29:29.715Z,5.95
2018-12-17T22:32:33.116Z,5.99
2018-12-17T22:35:36.460Z,6.04
2018-12-17T22:38:39.890Z,6.00
2018-12-17T22:41:43.307Z,6.06
2018-12-17T22:44:46.716Z,6.06
2018-12-17T22:47:50.065Z,6.07
2018-12-17T22:50:53.611Z,6.04
2018-12-17T22:53:57.087Z,6.04
2018-12-17T22:57:00.601Z,6.02
2018-12-17T23:00:04.328Z,6.02
2018-12-17T23:03:07.805Z,6.01
2018-12-17T23:06:11.308Z,6.00
2018-12-17T23:09:13.554Z,6.09
2018-12-17T23:12:28.329Z,6.07
2018-12-17T23:15:43.148Z,6.11
2018-12-17T23:18:45.445Z,6.11
2018-12-17T23:21:49.904Z,6.16
2018-12-17T23:24:53.433Z,6.10
2018-12-17T23:27:56.908Z,6.04
2018-12-17T23:31:00.439Z,5.99
2018-12-17T23:34:03.913Z,6.04
2018-12-17T23:37:07.479Z,6.04
2018-12-17T23:40:11.144Z,6.04
2018-12-17T23:43:14.763Z,5.99
2018-12-17T23:46:18.297Z,6.00
2018-12-17T23:49:21.813Z,6.03
2018-12-17T23:52:25.462Z,6.08
2018-12-17T23:55:29.047Z,6.08
2018-12-17T23:58:32.670Z,6.14
